sensor_id;sensor_type;location;lat;lon;timestamp;temperature;humidity
23335;DHT22;11839;48.598;8.870;2023-02-01T00:01:06;5.10;99.90
23335;DHT22;11839;48.598;8.870;2023-02-01T00:03:33;5.20;99.90
23335;DHT22;11839;48.598;8.870;2023-02-01T00:06:00;5.10;99.90
23335;DHT22;11839;48.598;8.870;2023-02-01T00:08:27;5.20;99.90
23335;DHT22;11839;48.598;8.870;2023-02-01T00:10:58;5.20;99.90
23335;DHT22;11839;48.598;8.870;2023-02-01T00:13:28;5.20;99.90
23335;DHT22;11839;48.598;8.870;2023-02-01T00:15:54;5.10;99.90
23335;DHT22;11839;48.598;8.870;2023-02-01T00:18:22;5.10;99.90
23335;DHT22;11839;48.598;8.870;2023-02-01T00:20:49;5.10;99.90
23335;DHT22;11839;48.598;8.870;2023-02-01T00:23:16;5.00;99.90
23335;DHT22;11839;48.598;8.870;2023-02-01T00:25:43;5.00;99.90
23335;DHT22;11839;48.598;8.870;2023-02-01T00:28:09;5.10;99.90
23335;DHT22;11839;48.598;8.870;2023-02-01T00:30:38;5.00;99.90
23335;DHT22;11839;48.598;8.870;2023-02-01T00:33:05;5.00;99.90
23335;DHT22;11839;48.598;8.870;2023-02-01T00:35:33;5.10;99.90
23335;DHT22;11839;48.598;8.870;2023-02-01T00:38:00;5.10;99.90
23335;DHT22;11839;48.598;8.870;2023-02-01T00:40:27;5.30;99.90
23335;DHT22;11839;48.598;8.870;2023-02-01T00:42:54;5.30;99.90
23335;DHT22;11839;48.598;8.870;2023-02-01T00:45:22;5.20;99.90
23335;DHT22;11839;48.598;8.870;2023-02-01T00:47:49;5.10;99.90
23335;DHT22;11839;48.598;8.870;2023-02-01T00:50:16;5.00;99.90
23335;DHT22;11839;48.598;8.870;2023-02-01T00:52:44;5.10;99.90
23335;DHT22;11839;48.598;8.870;2023-02-01T00:55:11;5.10;99.90
23335;DHT22;11839;48.598;8.870;2023-02-01T00:57:38;5.10;99.90
23335;DHT22;11839;48.598;8.870;2023-02-01T01:00:05;5.00;99.90
23335;DHT22;11839;48.598;8.870;2023-02-01T01:02:32;4.90;99.90
23335;DHT22;11839;48.598;8.870;2023-02-01T01:04:59;4.80;99.90
23335;DHT22;11839;48.598;8.870;2023-02-01T01:07:27;4.80;99.90
23335;DHT22;11839;48.598;8.870;2023-02-01T01:09:55;4.90;99.90
23335;DHT22;11839;48.598;8.870;2023-02-01T01:12:22;5.10;99.90
23335;DHT22;11839;48.598;8.870;2023-02-01T01:14:49;5.20;99.90
23335;DHT22;11839;48.598;8.870;2023-02-01T01:17:16;5.20;99.90
23335;DHT22;11839;48.598;8.870;2023-02-01T01:19:43;5.30;99.90
23335;DHT22;11839;48.598;8.870;2023-02-01T01:22:10;5.30;99.90
23335;DHT22;11839;48.598;8.870;2023-02-01T01:24:36;5.40;99.90
23335;DHT22;11839;48.598;8.870;2023-02-01T01:27:05;5.60;99.90
23335;DHT22;11839;48.598;8.870;2023-02-01T01:29:31;5.40;99.90
23335;DHT22;11839;48.598;8.870;2023-02-01T01:31:58;5.20;99.90
23335;DHT22;11839;48.598;8.870;2023-02-01T01:34:25;5.10;99.90
23335;DHT22;11839;48.598;8.870;2023-02-01T01:36:52;4.90;99.90
23335;DHT22;11839;48.598;8.870;2023-02-01T01:39:18;4.60;99.90
23335;DHT22;11839;48.598;8.870;2023-02-01T01:41:45;4.60;99.90
23335;DHT22;11839;48.598;8.870;2023-02-01T01:47:17;4.90;99.90
23335;DHT22;11839;48.598;8.870;2023-02-01T01:49:44;4.90;99.90
23335;DHT22;11839;48.598;8.870;2023-02-01T01:52:11;4.90;99.90
23335;DHT22;11839;48.598;8.870;2023-02-01T01:54:41;5.00;99.90
23335;DHT22;11839;48.598;8.870;2023-02-01T01:57:13;5.30;99.90
23335;DHT22;11839;48.598;8.870;2023-02-01T01:59:44;5.10;99.90
23335;DHT22;11839;48.598;8.870;2023-02-01T02:02:12;5.10;99.90
23335;DHT22;11839;48.598;8.870;2023-02-01T02:04:41;5.00;99.90
23335;DHT22;11839;48.598;8.870;2023-02-01T02:07:10;4.90;99.90
23335;DHT22;11839;48.598;8.870;2023-02-01T02:09:38;4.90;99.90
23335;DHT22;11839;48.598;8.870;2023-02-01T02:12:05;4.90;99.90
23335;DHT22;11839;48.598;8.870;2023-02-01T02:14:33;5.00;99.90
23335;DHT22;11839;48.598;8.870;2023-02-01T02:17:12;5.10;99.90
23335;DHT22;11839;48.598;8.870;2023-02-01T02:20:06;5.10;99.90
23335;DHT22;11839;48.598;8.870;2023-02-01T02:22:48;5.20;99.90
23335;DHT22;11839;48.598;8.870;2023-02-01T02:32:15;5.20;99.90
23335;DHT22;11839;48.598;8.870;2023-02-01T02:34:52;5.30;99.90
23335;DHT22;11839;48.598;8.870;2023-02-01T02:37:28;5.50;99.90
23335;DHT22;11839;48.598;8.870;2023-02-01T02:40:04;5.60;99.90
23335;DHT22;11839;48.598;8.870;2023-02-01T02:42:38;5.40;99.90
23335;DHT22;11839;48.598;8.870;2023-02-01T02:45:28;5.40;99.90
23335;DHT22;11839;48.598;8.870;2023-02-01T02:48:19;5.40;99.90
23335;DHT22;11839;48.598;8.870;2023-02-01T02:50:54;5.40;99.90
23335;DHT22;11839;48.598;8.870;2023-02-01T02:53:47;5.40;99.90
23335;DHT22;11839;48.598;8.870;2023-02-01T02:56:34;5.30;99.90
23335;DHT22;11839;48.598;8.870;2023-02-01T02:59:21;5.60;99.90
23335;DHT22;11839;48.598;8.870;2023-02-01T03:02:08;5.60;99.90
23335;DHT22;11839;48.598;8.870;2023-02-01T03:04:53;5.80;99.90
23335;DHT22;11839;48.598;8.870;2023-02-01T03:10:32;5.80;99.90
23335;DHT22;11839;48.598;8.870;2023-02-01T03:13:02;6.00;99.90
23335;DHT22;11839;48.598;8.870;2023-02-01T03:15:36;6.00;99.90
23335;DHT22;11839;48.598;8.870;2023-02-01T03:18:13;5.70;99.90
23335;DHT22;11839;48.598;8.870;2023-02-01T03:20:44;5.70;99.90
23335;DHT22;11839;48.598;8.870;2023-02-01T03:23:13;5.60;99.90
23335;DHT22;11839;48.598;8.870;2023-02-01T03:25:42;5.60;99.90
23335;DHT22;11839;48.598;8.870;2023-02-01T03:28:10;5.60;99.90
23335;DHT22;11839;48.598;8.870;2023-02-01T03:30:39;5.80;99.90
23335;DHT22;11839;48.598;8.870;2023-02-01T03:33:09;5.90;99.90
23335;DHT22;11839;48.598;8.870;2023-02-01T03:35:52;6.00;99.90
23335;DHT22;11839;48.598;8.870;2023-02-01T03:38:24;6.00;99.90
23335;DHT22;11839;48.598;8.870;2023-02-01T03:41:00;6.20;99.90
23335;DHT22;11839;48.598;8.870;2023-02-01T03:43:30;6.10;99.90
23335;DHT22;11839;48.598;8.870;2023-02-01T03:46:02;6.30;99.90
23335;DHT22;11839;48.598;8.870;2023-02-01T03:48:31;6.30;99.90
23335;DHT22;11839;48.598;8.870;2023-02-01T03:51:01;6.50;99.90
23335;DHT22;11839;48.598;8.870;2023-02-01T03:53:30;6.40;99.90
23335;DHT22;11839;48.598;8.870;2023-02-01T03:55:59;6.30;99.90
23335;DHT22;11839;48.598;8.870;2023-02-01T03:58:26;6.30;99.90
23335;DHT22;11839;48.598;8.870;2023-02-01T04:00:55;6.40;99.90
23335;DHT22;11839;48.598;8.870;2023-02-01T04:03:22;6.40;99.90
23335;DHT22;11839;48.598;8.870;2023-02-01T04:05:51;6.20;99.90
23335;DHT22;11839;48.598;8.870;2023-02-01T04:08:19;6.30;99.90
23335;DHT22;11839;48.598;8.870;2023-02-01T04:10:45;6.20;99.90
23335;DHT22;11839;48.598;8.870;2023-02-01T04:13:14;5.90;99.90
23335;DHT22;11839;48.598;8.870;2023-02-01T04:15:40;5.80;99.90
23335;DHT22;11839;48.598;8.870;2023-02-01T04:18:07;5.70;99.90
23335;DHT22;11839;48.598;8.870;2023-02-01T04:20:34;5.60;99.90
23335;DHT22;11839;48.598;8.870;2023-02-01T04:23:01;5.70;99.90
23335;DHT22;11839;48.598;8.870;2023-02-01T04:25:28;5.70;99.90
23335;DHT22;11839;48.598;8.870;2023-02-01T04:27:55;5.80;99.90
23335;DHT22;11839;48.598;8.870;2023-02-01T04:30:23;5.80;99.90
23335;DHT22;11839;48.598;8.870;2023-02-01T04:32:50;5.60;99.90
23335;DHT22;11839;48.598;8.870;2023-02-01T04:35:17;5.80;99.90
23335;DHT22;11839;48.598;8.870;2023-02-01T04:37:44;5.80;99.90
23335;DHT22;11839;48.598;8.870;2023-02-01T04:40:11;5.90;99.90
23335;DHT22;11839;48.598;8.870;2023-02-01T04:42:38;6.00;99.90
23335;DHT22;11839;48.598;8.870;2023-02-01T04:45:06;5.90;99.90
23335;DHT22;11839;48.598;8.870;2023-02-01T04:47:35;5.90;99.90
23335;DHT22;11839;48.598;8.870;2023-02-01T04:50:02;5.90;99.90
23335;DHT22;11839;48.598;8.870;2023-02-01T04:52:29;5.90;99.90
23335;DHT22;11839;48.598;8.870;2023-02-01T04:54:56;6.00;99.90
23335;DHT22;11839;48.598;8.870;2023-02-01T04:57:25;5.90;99.90
23335;DHT22;11839;48.598;8.870;2023-02-01T04:59:52;5.60;99.90
23335;DHT22;11839;48.598;8.870;2023-02-01T05:02:19;5.40;99.90
23335;DHT22;11839;48.598;8.870;2023-02-01T05:04:47;5.50;99.90
23335;DHT22;11839;48.598;8.870;2023-02-01T05:07:13;5.40;99.90
23335;DHT22;11839;48.598;8.870;2023-02-01T05:09:40;5.30;99.90
23335;DHT22;11839;48.598;8.870;2023-02-01T05:12:08;5.30;99.90
23335;DHT22;11839;48.598;8.870;2023-02-01T05:14:53;5.20;99.90
23335;DHT22;11839;48.598;8.870;2023-02-01T05:17:20;5.20;99.90
23335;DHT22;11839;48.598;8.870;2023-02-01T05:19:48;5.40;99.90
23335;DHT22;11839;48.598;8.870;2023-02-01T05:22:15;5.40;99.90
23335;DHT22;11839;48.598;8.870;2023-02-01T05:24:41;5.40;99.90
23335;DHT22;11839;48.598;8.870;2023-02-01T05:27:08;5.40;99.90
23335;DHT22;11839;48.598;8.870;2023-02-01T05:29:35;5.40;99.90
23335;DHT22;11839;48.598;8.870;2023-02-01T05:32:02;5.50;99.90
23335;DHT22;11839;48.598;8.870;2023-02-01T05:34:29;5.60;99.90
23335;DHT22;11839;48.598;8.870;2023-02-01T05:36:57;5.60;99.90
23335;DHT22;11839;48.598;8.870;2023-02-01T05:39:23;5.50;99.90
23335;DHT22;11839;48.598;8.870;2023-02-01T05:41:50;5.50;99.90
23335;DHT22;11839;48.598;8.870;2023-02-01T05:44:17;5.60;99.90
23335;DHT22;11839;48.598;8.870;2023-02-01T05:46:44;5.70;99.90
23335;DHT22;11839;48.598;8.870;2023-02-01T05:49:10;5.80;99.90
23335;DHT22;11839;48.598;8.870;2023-02-01T05:51:37;5.70;99.90
23335;DHT22;11839;48.598;8.870;2023-02-01T05:54:05;5.60;99.90
23335;DHT22;11839;48.598;8.870;2023-02-01T05:56:32;5.50;99.90
23335;DHT22;11839;48.598;8.870;2023-02-01T05:58:59;5.50;99.90
23335;DHT22;11839;48.598;8.870;2023-02-01T06:01:26;5.40;99.90
23335;DHT22;11839;48.598;8.870;2023-02-01T06:03:52;5.40;99.90
23335;DHT22;11839;48.598;8.870;2023-02-01T06:06:19;5.50;99.90
23335;DHT22;11839;48.598;8.870;2023-02-01T06:08:46;5.50;99.90
23335;DHT22;11839;48.598;8.870;2023-02-01T06:11:14;5.50;99.90
23335;DHT22;11839;48.598;8.870;2023-02-01T06:13:41;5.60;99.90
23335;DHT22;11839;48.598;8.870;2023-02-01T06:16:07;5.70;99.90
23335;DHT22;11839;48.598;8.870;2023-02-01T06:18:34;5.60;99.90
23335;DHT22;11839;48.598;8.870;2023-02-01T06:21:02;5.60;99.90
23335;DHT22;11839;48.598;8.870;2023-02-01T06:23:29;5.60;99.90
23335;DHT22;11839;48.598;8.870;2023-02-01T06:26:02;5.70;99.90
23335;DHT22;11839;48.598;8.870;2023-02-01T06:28:31;5.80;99.90
23335;DHT22;11839;48.598;8.870;2023-02-01T06:31:03;6.00;99.90
23335;DHT22;11839;48.598;8.870;2023-02-01T06:33:31;5.90;99.90
23335;DHT22;11839;48.598;8.870;2023-02-01T06:35:59;5.90;99.90
23335;DHT22;11839;48.598;8.870;2023-02-01T06:38:26;6.00;99.90
23335;DHT22;11839;48.598;8.870;2023-02-01T06:40:53;6.00;99.90
23335;DHT22;11839;48.598;8.870;2023-02-01T06:43:21;6.20;99.90
23335;DHT22;11839;48.598;8.870;2023-02-01T06:45:49;6.10;99.90
23335;DHT22;11839;48.598;8.870;2023-02-01T06:48:16;6.20;99.90
23335;DHT22;11839;48.598;8.870;2023-02-01T06:50:42;6.10;99.90
23335;DHT22;11839;48.598;8.870;2023-02-01T06:53:09;6.00;99.90
23335;DHT22;11839;48.598;8.870;2023-02-01T06:55:36;5.90;99.90
23335;DHT22;11839;48.598;8.870;2023-02-01T06:58:03;5.90;99.90
23335;DHT22;11839;48.598;8.870;2023-02-01T07:00:30;5.90;99.90
23335;DHT22;11839;48.598;8.870;2023-02-01T07:02:58;6.00;99.90
23335;DHT22;11839;48.598;8.870;2023-02-01T07:05:26;5.90;99.90
23335;DHT22;11839;48.598;8.870;2023-02-01T07:07:53;5.90;99.90
23335;DHT22;11839;48.598;8.870;2023-02-01T07:10:19;6.00;99.90
23335;DHT22;11839;48.598;8.870;2023-02-01T07:12:46;6.10;99.90
23335;DHT22;11839;48.598;8.870;2023-02-01T07:15:13;6.10;99.90
23335;DHT22;11839;48.598;8.870;2023-02-01T07:17:40;6.10;99.90
23335;DHT22;11839;48.598;8.870;2023-02-01T07:20:09;6.10;99.90
23335;DHT22;11839;48.598;8.870;2023-02-01T07:22:36;6.10;99.90
23335;DHT22;11839;48.598;8.870;2023-02-01T07:25:03;6.20;99.90
23335;DHT22;11839;48.598;8.870;2023-02-01T07:27:33;6.10;99.90
23335;DHT22;11839;48.598;8.870;2023-02-01T07:30:00;6.20;99.90
23335;DHT22;11839;48.598;8.870;2023-02-01T07:32:27;6.00;99.90
23335;DHT22;11839;48.598;8.870;2023-02-01T07:34:54;6.00;99.90
23335;DHT22;11839;48.598;8.870;2023-02-01T07:37:22;5.90;99.90
23335;DHT22;11839;48.598;8.870;2023-02-01T07:39:50;5.90;99.90
23335;DHT22;11839;48.598;8.870;2023-02-01T07:42:17;5.90;99.90
23335;DHT22;11839;48.598;8.870;2023-02-01T07:44:43;5.90;99.90
23335;DHT22;11839;48.598;8.870;2023-02-01T07:47:10;5.90;99.90
23335;DHT22;11839;48.598;8.870;2023-02-01T07:49:37;6.00;99.90
23335;DHT22;11839;48.598;8.870;2023-02-01T07:52:04;6.20;99.90
23335;DHT22;11839;48.598;8.870;2023-02-01T07:54:32;6.20;99.90
23335;DHT22;11839;48.598;8.870;2023-02-01T07:56:58;6.40;99.90
23335;DHT22;11839;48.598;8.870;2023-02-01T07:59:25;6.50;99.90
23335;DHT22;11839;48.598;8.870;2023-02-01T08:01:52;6.60;99.90
23335;DHT22;11839;48.598;8.870;2023-02-01T08:04:18;6.80;99.90
23335;DHT22;11839;48.598;8.870;2023-02-01T08:06:45;6.90;99.90
23335;DHT22;11839;48.598;8.870;2023-02-01T08:09:12;6.70;99.90
23335;DHT22;11839;48.598;8.870;2023-02-01T08:11:40;6.90;99.90
23335;DHT22;11839;48.598;8.870;2023-02-01T08:14:07;7.00;99.90
23335;DHT22;11839;48.598;8.870;2023-02-01T08:16:34;7.10;99.90
23335;DHT22;11839;48.598;8.870;2023-02-01T08:19:02;6.90;99.90
23335;DHT22;11839;48.598;8.870;2023-02-01T08:21:29;7.00;99.90
23335;DHT22;11839;48.598;8.870;2023-02-01T08:24:03;7.00;99.90
23335;DHT22;11839;48.598;8.870;2023-02-01T08:26:31;7.00;99.90
23335;DHT22;11839;48.598;8.870;2023-02-01T08:29:00;7.10;99.90
23335;DHT22;11839;48.598;8.870;2023-02-01T08:31:29;7.10;99.90
23335;DHT22;11839;48.598;8.870;2023-02-01T08:33:57;7.20;99.90
23335;DHT22;11839;48.598;8.870;2023-02-01T08:36:25;7.10;99.90
23335;DHT22;11839;48.598;8.870;2023-02-01T08:38:52;7.20;99.90
23335;DHT22;11839;48.598;8.870;2023-02-01T08:41:22;7.00;99.90
23335;DHT22;11839;48.598;8.870;2023-02-01T08:43:49;7.20;99.90
23335;DHT22;11839;48.598;8.870;2023-02-01T08:46:17;7.40;99.90
23335;DHT22;11839;48.598;8.870;2023-02-01T08:48:45;7.40;99.90
23335;DHT22;11839;48.598;8.870;2023-02-01T08:51:14;7.20;99.90
23335;DHT22;11839;48.598;8.870;2023-02-01T08:53:41;7.30;99.90
23335;DHT22;11839;48.598;8.870;2023-02-01T08:56:09;7.60;99.90
23335;DHT22;11839;48.598;8.870;2023-02-01T08:58:36;7.70;99.90
23335;DHT22;11839;48.598;8.870;2023-02-01T09:01:04;7.50;99.90
23335;DHT22;11839;48.598;8.870;2023-02-01T09:03:33;7.40;99.90
23335;DHT22;11839;48.598;8.870;2023-02-01T09:06:00;7.60;99.90
23335;DHT22;11839;48.598;8.870;2023-02-01T09:08:27;7.40;99.90
23335;DHT22;11839;48.598;8.870;2023-02-01T09:10:58;7.60;99.90
23335;DHT22;11839;48.598;8.870;2023-02-01T09:13:25;7.60;99.90
23335;DHT22;11839;48.598;8.870;2023-02-01T09:15:52;7.70;99.90
23335;DHT22;11839;48.598;8.870;2023-02-01T09:18:18;7.60;99.90
23335;DHT22;11839;48.598;8.870;2023-02-01T09:20:47;7.90;99.90
23335;DHT22;11839;48.598;8.870;2023-02-01T09:23:13;8.20;99.90
23335;DHT22;11839;48.598;8.870;2023-02-01T09:25:40;7.90;99.90
23335;DHT22;11839;48.598;8.870;2023-02-01T09:28:07;7.60;99.90
23335;DHT22;11839;48.598;8.870;2023-02-01T09:30:35;7.30;99.90
23335;DHT22;11839;48.598;8.870;2023-02-01T09:33:01;7.10;99.90
23335;DHT22;11839;48.598;8.870;2023-02-01T09:35:28;7.30;99.90
23335;DHT22;11839;48.598;8.870;2023-02-01T09:37:56;7.60;99.90
23335;DHT22;11839;48.598;8.870;2023-02-01T09:40:23;7.40;99.90
23335;DHT22;11839;48.598;8.870;2023-02-01T09:43:04;7.30;99.90
23335;DHT22;11839;48.598;8.870;2023-02-01T09:45:40;7.70;99.90
23335;DHT22;11839;48.598;8.870;2023-02-01T09:48:12;7.70;99.90
23335;DHT22;11839;48.598;8.870;2023-02-01T09:50:43;8.10;99.90
23335;DHT22;11839;48.598;8.870;2023-02-01T09:53:18;8.20;99.90
23335;DHT22;11839;48.598;8.870;2023-02-01T09:55:49;8.20;99.90
23335;DHT22;11839;48.598;8.870;2023-02-01T09:58:20;7.90;99.90
23335;DHT22;11839;48.598;8.870;2023-02-01T10:00:51;7.60;99.90
23335;DHT22;11839;48.598;8.870;2023-02-01T10:03:18;7.80;99.90
23335;DHT22;11839;48.598;8.870;2023-02-01T10:05:58;8.10;99.90
23335;DHT22;11839;48.598;8.870;2023-02-01T10:08:33;8.10;99.90
23335;DHT22;11839;48.598;8.870;2023-02-01T10:11:11;8.10;99.90
23335;DHT22;11839;48.598;8.870;2023-02-01T10:13:48;8.00;99.90
23335;DHT22;11839;48.598;8.870;2023-02-01T10:16:24;8.00;99.90
23335;DHT22;11839;48.598;8.870;2023-02-01T10:19:17;8.30;99.90
23335;DHT22;11839;48.598;8.870;2023-02-01T10:21:54;8.40;99.90
23335;DHT22;11839;48.598;8.870;2023-02-01T10:24:41;8.60;99.90
23335;DHT22;11839;48.598;8.870;2023-02-01T10:27:17;8.50;99.90
23335;DHT22;11839;48.598;8.870;2023-02-01T10:29:47;8.00;99.90
23335;DHT22;11839;48.598;8.870;2023-02-01T10:32:17;7.90;99.90
23335;DHT22;11839;48.598;8.870;2023-02-01T10:34:46;7.90;99.90
23335;DHT22;11839;48.598;8.870;2023-02-01T10:37:22;7.90;99.90
23335;DHT22;11839;48.598;8.870;2023-02-01T10:39:53;8.20;99.90
23335;DHT22;11839;48.598;8.870;2023-02-01T10:42:23;7.90;99.90
23335;DHT22;11839;48.598;8.870;2023-02-01T10:44:50;7.90;99.90
23335;DHT22;11839;48.598;8.870;2023-02-01T10:47:18;8.10;99.90
23335;DHT22;11839;48.598;8.870;2023-02-01T10:49:49;7.90;99.90
23335;DHT22;11839;48.598;8.870;2023-02-01T10:52:22;7.70;99.90
23335;DHT22;11839;48.598;8.870;2023-02-01T10:54:53;7.70;99.90
23335;DHT22;11839;48.598;8.870;2023-02-01T10:57:22;7.70;99.90
23335;DHT22;11839;48.598;8.870;2023-02-01T10:59:51;7.70;99.90
23335;DHT22;11839;48.598;8.870;2023-02-01T11:02:25;8.10;99.90
23335;DHT22;11839;48.598;8.870;2023-02-01T11:05:00;8.00;99.90
23335;DHT22;11839;48.598;8.870;2023-02-01T11:07:27;8.20;99.90
23335;DHT22;11839;48.598;8.870;2023-02-01T11:09:56;8.20;99.90
23335;DHT22;11839;48.598;8.870;2023-02-01T11:12:28;8.10;99.90
23335;DHT22;11839;48.598;8.870;2023-02-01T11:15:02;8.20;99.90
23335;DHT22;11839;48.598;8.870;2023-02-01T11:17:34;8.10;99.90
23335;DHT22;11839;48.598;8.870;2023-02-01T11:20:09;7.90;99.90
23335;DHT22;11839;48.598;8.870;2023-02-01T11:22:45;8.30;99.90
23335;DHT22;11839;48.598;8.870;2023-02-01T11:25:16;8.10;99.90
23335;DHT22;11839;48.598;8.870;2023-02-01T11:27:44;7.80;99.90
23335;DHT22;11839;48.598;8.870;2023-02-01T11:30:15;7.60;99.90
23335;DHT22;11839;48.598;8.870;2023-02-01T11:32:44;7.60;99.90
23335;DHT22;11839;48.598;8.870;2023-02-01T11:35:14;7.80;99.90
23335;DHT22;11839;48.598;8.870;2023-02-01T11:37:43;8.00;99.90
23335;DHT22;11839;48.598;8.870;2023-02-01T11:40:26;8.40;99.90
23335;DHT22;11839;48.598;8.870;2023-02-01T11:42:55;8.60;99.90
23335;DHT22;11839;48.598;8.870;2023-02-01T11:45:26;8.30;99.90
23335;DHT22;11839;48.598;8.870;2023-02-01T11:47:54;8.60;99.90
23335;DHT22;11839;48.598;8.870;2023-02-01T11:50:28;8.80;99.90
23335;DHT22;11839;48.598;8.870;2023-02-01T11:53:20;9.00;99.90
23335;DHT22;11839;48.598;8.870;2023-02-01T11:56:11;8.60;99.90
23335;DHT22;11839;48.598;8.870;2023-02-01T11:59:08;8.40;99.90
23335;DHT22;11839;48.598;8.870;2023-02-01T12:01:50;8.20;99.90
23335;DHT22;11839;48.598;8.870;2023-02-01T12:04:54;8.30;99.90
23335;DHT22;11839;48.598;8.870;2023-02-01T12:07:31;8.30;99.90
23335;DHT22;11839;48.598;8.870;2023-02-01T12:10:07;8.30;99.90
23335;DHT22;11839;48.598;8.870;2023-02-01T12:12:47;8.10;99.90
23335;DHT22;11839;48.598;8.870;2023-02-01T12:15:26;8.10;99.90
23335;DHT22;11839;48.598;8.870;2023-02-01T12:18:13;8.20;99.90
23335;DHT22;11839;48.598;8.870;2023-02-01T12:21:10;8.40;99.90
23335;DHT22;11839;48.598;8.870;2023-02-01T12:23:55;8.40;99.90
23335;DHT22;11839;48.598;8.870;2023-02-01T12:26:41;8.60;99.90
23335;DHT22;11839;48.598;8.870;2023-02-01T12:29:22;8.30;99.90
23335;DHT22;11839;48.598;8.870;2023-02-01T12:32:04;8.10;99.90
23335;DHT22;11839;48.598;8.870;2023-02-01T12:34:59;7.80;99.90
23335;DHT22;11839;48.598;8.870;2023-02-01T12:37:42;7.70;99.90
23335;DHT22;11839;48.598;8.870;2023-02-01T12:40:21;7.80;99.90
23335;DHT22;11839;48.598;8.870;2023-02-01T12:42:59;7.90;99.90
23335;DHT22;11839;48.598;8.870;2023-02-01T12:45:32;7.90;99.90
23335;DHT22;11839;48.598;8.870;2023-02-01T12:48:11;7.80;99.90
23335;DHT22;11839;48.598;8.870;2023-02-01T12:50:46;8.10;99.90
23335;DHT22;11839;48.598;8.870;2023-02-01T12:53:19;8.40;99.90
23335;DHT22;11839;48.598;8.870;2023-02-01T12:55:52;8.50;99.90
23335;DHT22;11839;48.598;8.870;2023-02-01T12:58:23;8.00;99.90
23335;DHT22;11839;48.598;8.870;2023-02-01T13:00:57;7.90;99.90
23335;DHT22;11839;48.598;8.870;2023-02-01T13:03:31;7.90;99.90
23335;DHT22;11839;48.598;8.870;2023-02-01T13:06:04;7.50;99.90
23335;DHT22;11839;48.598;8.870;2023-02-01T13:08:40;7.90;99.90
23335;DHT22;11839;48.598;8.870;2023-02-01T13:11:11;7.80;99.90
23335;DHT22;11839;48.598;8.870;2023-02-01T13:13:47;7.90;99.90
23335;DHT22;11839;48.598;8.870;2023-02-01T13:16:18;7.80;99.90
23335;DHT22;11839;48.598;8.870;2023-02-01T13:18:55;7.40;99.90
23335;DHT22;11839;48.598;8.870;2023-02-01T13:21:29;7.30;99.90
23335;DHT22;11839;48.598;8.870;2023-02-01T13:23:58;7.50;99.90
23335;DHT22;11839;48.598;8.870;2023-02-01T13:26:25;7.60;99.90
23335;DHT22;11839;48.598;8.870;2023-02-01T13:28:53;7.50;99.90
23335;DHT22;11839;48.598;8.870;2023-02-01T13:31:52;7.20;99.90
23335;DHT22;11839;48.598;8.870;2023-02-01T13:37:35;7.70;99.90
23335;DHT22;11839;48.598;8.870;2023-02-01T13:40:21;7.80;99.90
23335;DHT22;11839;48.598;8.870;2023-02-01T13:42:57;7.70;99.90
23335;DHT22;11839;48.598;8.870;2023-02-01T13:45:27;7.70;99.90
23335;DHT22;11839;48.598;8.870;2023-02-01T13:47:59;7.50;99.90
23335;DHT22;11839;48.598;8.870;2023-02-01T13:50:31;7.60;99.90
23335;DHT22;11839;48.598;8.870;2023-02-01T13:53:04;7.60;99.90
23335;DHT22;11839;48.598;8.870;2023-02-01T13:55:38;7.50;99.90
23335;DHT22;11839;48.598;8.870;2023-02-01T13:58:15;7.50;99.90
23335;DHT22;11839;48.598;8.870;2023-02-01T14:00:42;7.70;99.90
23335;DHT22;11839;48.598;8.870;2023-02-01T14:03:20;8.00;99.90
23335;DHT22;11839;48.598;8.870;2023-02-01T14:06:15;8.00;99.90
23335;DHT22;11839;48.598;8.870;2023-02-01T14:08:46;8.10;99.90
23335;DHT22;11839;48.598;8.870;2023-02-01T14:11:36;7.90;99.90
23335;DHT22;11839;48.598;8.870;2023-02-01T14:17:36;7.90;99.90
23335;DHT22;11839;48.598;8.870;2023-02-01T14:23:22;8.00;99.90
23335;DHT22;11839;48.598;8.870;2023-02-01T14:26:06;8.20;99.90
23335;DHT22;11839;48.598;8.870;2023-02-01T14:28:39;8.30;99.90
23335;DHT22;11839;48.598;8.870;2023-02-01T14:31:29;8.40;99.90
23335;DHT22;11839;48.598;8.870;2023-02-01T14:33:59;8.50;99.90
23335;DHT22;11839;48.598;8.870;2023-02-01T14:36:39;8.30;99.90
23335;DHT22;11839;48.598;8.870;2023-02-01T14:39:19;8.10;99.90
23335;DHT22;11839;48.598;8.870;2023-02-01T14:41:47;7.90;99.90
23335;DHT22;11839;48.598;8.870;2023-02-01T14:44:30;8.20;99.90
23335;DHT22;11839;48.598;8.870;2023-02-01T14:47:10;8.00;99.90
23335;DHT22;11839;48.598;8.870;2023-02-01T14:49:42;8.00;99.90
23335;DHT22;11839;48.598;8.870;2023-02-01T14:52:17;8.00;99.90
23335;DHT22;11839;48.598;8.870;2023-02-01T14:54:51;7.90;99.90
23335;DHT22;11839;48.598;8.870;2023-02-01T14:57:20;8.00;99.90
23335;DHT22;11839;48.598;8.870;2023-02-01T14:59:53;7.70;99.90
23335;DHT22;11839;48.598;8.870;2023-02-01T15:02:25;7.50;99.90
23335;DHT22;11839;48.598;8.870;2023-02-01T15:04:54;7.80;99.90
23335;DHT22;11839;48.598;8.870;2023-02-01T15:07:23;7.90;99.90
23335;DHT22;11839;48.598;8.870;2023-02-01T15:09:56;8.00;99.90
23335;DHT22;11839;48.598;8.870;2023-02-01T15:12:25;7.60;99.90
23335;DHT22;11839;48.598;8.870;2023-02-01T15:15:14;7.40;99.90
23335;DHT22;11839;48.598;8.870;2023-02-01T15:17:49;7.50;99.90
23335;DHT22;11839;48.598;8.870;2023-02-01T15:20:18;7.40;99.90
23335;DHT22;11839;48.598;8.870;2023-02-01T15:22:53;7.40;99.90
23335;DHT22;11839;48.598;8.870;2023-02-01T15:25:25;7.30;99.90
23335;DHT22;11839;48.598;8.870;2023-02-01T15:27:52;7.40;99.90
23335;DHT22;11839;48.598;8.870;2023-02-01T15:30:21;7.40;99.90
23335;DHT22;11839;48.598;8.870;2023-02-01T15:32:49;7.50;99.90
23335;DHT22;11839;48.598;8.870;2023-02-01T15:35:36;7.70;99.90
23335;DHT22;11839;48.598;8.870;2023-02-01T15:38:30;7.70;99.90
23335;DHT22;11839;48.598;8.870;2023-02-01T15:40:59;7.70;99.90
23335;DHT22;11839;48.598;8.870;2023-02-01T15:43:29;7.90;99.90
23335;DHT22;11839;48.598;8.870;2023-02-01T15:45:58;7.80;99.90
23335;DHT22;11839;48.598;8.870;2023-02-01T15:48:27;7.80;99.90
23335;DHT22;11839;48.598;8.870;2023-02-01T15:50:55;7.80;99.90
23335;DHT22;11839;48.598;8.870;2023-02-01T15:53:24;7.70;99.90
23335;DHT22;11839;48.598;8.870;2023-02-01T15:55:55;7.70;99.90
23335;DHT22;11839;48.598;8.870;2023-02-01T15:58:26;7.50;99.90
23335;DHT22;11839;48.598;8.870;2023-02-01T16:00:55;7.60;99.90
23335;DHT22;11839;48.598;8.870;2023-02-01T16:03:41;7.50;99.90
23335;DHT22;11839;48.598;8.870;2023-02-01T16:06:11;7.50;99.90
23335;DHT22;11839;48.598;8.870;2023-02-01T16:08:49;7.20;99.90
23335;DHT22;11839;48.598;8.870;2023-02-01T16:11:23;7.20;99.90
23335;DHT22;11839;48.598;8.870;2023-02-01T16:13:52;7.10;99.90
23335;DHT22;11839;48.598;8.870;2023-02-01T16:16:18;7.00;99.90
23335;DHT22;11839;48.598;8.870;2023-02-01T16:18:45;7.20;99.90
23335;DHT22;11839;48.598;8.870;2023-02-01T16:21:12;7.00;99.90
23335;DHT22;11839;48.598;8.870;2023-02-01T16:23:39;7.20;99.90
23335;DHT22;11839;48.598;8.870;2023-02-01T16:26:06;7.00;99.90
23335;DHT22;11839;48.598;8.870;2023-02-01T16:28:33;7.30;99.90
23335;DHT22;11839;48.598;8.870;2023-02-01T16:31:01;7.10;99.90
23335;DHT22;11839;48.598;8.870;2023-02-01T16:33:28;7.00;99.90